Home > Products > Valid Products > TAF

000
FTUS43 KDMX 221213 AAA
TAFOTM
TAF AMD
KOTM 221213Z 2212/2312 16013G19KT P6SM TSRA BKN035CB OVC110
     FM221330 19011KT P6SM VCTS BKN040CB OVC150
     FM221500 23010KT P6SM SCT150
     FM222100 31010KT P6SM SCT040 BKN150
     FM230400 01009KT P6SM BKN150=



000
FTUS43 KDMX 221213 AAA
TAFOTM
TAF AMD
KOTM 221213Z 2212/2312 16013G19KT P6SM TSRA BKN035CB OVC110
     FM221330 19011KT P6SM VCTS BKN040CB OVC150
     FM221500 23010KT P6SM SCT150
     FM222100 31010KT P6SM SCT040 BKN150
     FM230400 01009KT P6SM BKN150=



000
FTUS43 KDMX 221130
TAFOTM
TAF
KOTM 221130Z 2212/2312 19010KT P6SM SKC
     FM221600 23010KT P6SM SCT150
     FM222100 31010KT P6SM SCT040 BKN150
     FM230400 01009KT P6SM BKN150=



000
FTUS43 KDMX 221130
TAFFOD
TAF
KFOD 221130Z 2212/2312 22005KT P6SM SKC
     FM221600 34010KT P6SM SCT050 SCT200
     FM230300 03005KT P6SM SCT040=



000
FTUS43 KDMX 221130
TAFDSM
TAF
KDSM 221130Z 2212/2312 20010KT P6SM VCTS SCT070CB OVC200
     FM221400 24010KT P6SM SCT040 BKN150
     FM221900 30010KT P6SM SCT150
     FM230200 01008KT P6SM SCT200=



000
FTUS43 KDMX 221130
TAFMCW
TAF
KMCW 221130Z 2212/2312 19005KT 3SM BR SKC
     FM221300 23007KT 6SM HZ SKC
     FM221600 31013KT P6SM FEW040 SCT150
     FM230100 35005KT P6SM SCT050=



000
FTUS43 KDMX 221130
TAFALO
TAF
KALO 221130Z 2212/2312 20012KT P6SM SKC
     FM222000 31013KT P6SM SCT050
     FM230300 35009KT P6SM SKC=



000
FTUS43 KDMX 221130
TAFFOD
TAF
KFOD 221130Z 2212/2312 22005KT P6SM SKC
     FM221600 34010KT P6SM SCT050 SCT200
     FM230300 03005KT P6SM SCT040=



000
FTUS43 KDMX 221130
TAFMCW
TAF
KMCW 221130Z 2212/2312 19005KT 3SM BR SKC
     FM221300 23007KT 6SM HZ SKC
     FM221600 31013KT P6SM FEW040 SCT150
     FM230100 35005KT P6SM SCT050=



000
FTUS43 KDMX 221130
TAFDSM
TAF
KDSM 221130Z 2212/2312 20010KT P6SM VCTS SCT070CB OVC200
     FM221400 24010KT P6SM SCT040 BKN150
     FM221900 30010KT P6SM SCT150
     FM230200 01008KT P6SM SCT200=



000
FTUS43 KDMX 221130
TAFOTM
TAF
KOTM 221130Z 2212/2312 19010KT P6SM SKC
     FM221600 23010KT P6SM SCT150
     FM222100 31010KT P6SM SCT040 BKN150
     FM230400 01009KT P6SM BKN150=



000
FTUS43 KDMX 221130
TAFALO
TAF
KALO 221130Z 2212/2312 20012KT P6SM SKC
     FM222000 31013KT P6SM SCT050
     FM230300 35009KT P6SM SKC=



000
FTUS43 KDMX 220520
TAFFOD
TAF
KFOD 220520Z 2206/2306 19007KT P6SM SCT035
     FM221000 22008KT P6SM BKN120
     FM221500 33010KT P6SM SCT050
     FM222300 36010KT P6SM BKN040
     FM230300 03005KT P6SM SCT040=



000
FTUS43 KDMX 220520
TAFOTM
TAF
KOTM 220520Z 2206/2306 18011KT P6SM SCT030
     FM221500 20010KT P6SM VCSH SCT040 BKN250
     FM221900 25009KT P6SM BKN100
     FM222100 30010KT P6SM BKN080
     FM230500 01010KT P6SM BKN150=



000
FTUS43 KDMX 220520
TAFFOD
TAF
KFOD 220520Z 2206/2306 19007KT P6SM SCT035
     FM221000 22008KT P6SM BKN120
     FM221500 33010KT P6SM SCT050
     FM222300 36010KT P6SM BKN040
     FM230300 03005KT P6SM SCT040=



000
FTUS43 KDMX 220520
TAFMCW
TAF
KMCW 220520Z 2206/2306 15011KT P6SM SCT040 BKN250
      TEMPO 2210/2214 4SM BR BKN028
     FM221500 29013KT P6SM SCT100 BKN200
     FM222100 32015KT P6SM BKN040
     FM230200 35007KT P6SM SCT050=



000
FTUS43 KDMX 220520
TAFDSM
TAF
KDSM 220520Z 2206/2306 18011KT P6SM SCT120
     FM221500 23010KT P6SM SCT040 BKN150
     FM221900 27009KT P6SM BKN100
     FM222200 30010KT P6SM BKN080
     FM230500 02008KT P6SM SCT120=



000
FTUS43 KDMX 220520
TAFALO
TAF
KALO 220520Z 2206/2306 17014KT P6SM SCT050
     FM220800 16013KT P6SM BKN080
      TEMPO 2210/2213 5SM BR BKN030
     FM221500 25010KT P6SM BKN050 BKN250
     FM222300 33012KT P6SM SCT035
     FM230500 36006KT P6SM SKC=



000
FTUS43 KDMX 220132 AAA
TAFALO
TAF AMD
KALO 220132Z 2202/2224 17010KT P6SM BKN040
     FM220500 16013KT P6SM BKN080
      TEMPO 2210/2213 5SM BR BKN030
     FM221500 22010KT P6SM SCT030 BKN250
     FM222100 29010KT P6SM SCT035=



000
FTUS43 KDMX 220132 AAA
TAFALO
TAF AMD
KALO 220132Z 2202/2224 17010KT P6SM BKN040
     FM220500 16013KT P6SM BKN080
      TEMPO 2210/2213 5SM BR BKN030
     FM221500 22010KT P6SM SCT030 BKN250
     FM222100 29010KT P6SM SCT035=



000
FTUS43 KDMX 212333
TAFOTM
TAF
KOTM 212333Z 2200/2224 18011KT P6SM SCT030
     FM220200 15011KT P6SM BKN120
     FM221500 23010KT P6SM VCSH SCT040 BKN250
     FM221900 26009KT P6SM BKN100
     FM222100 30010KT P6SM BKN080=



000
FTUS43 KDMX 212333
TAFALO
TAF
KALO 212333Z 2200/2224 17013G20KT P6SM BKN040
     FM220500 16013KT P6SM BKN080
      TEMPO 2210/2213 5SM BR BKN030
     FM221500 22010KT P6SM SCT030 BKN250
     FM222100 29010KT P6SM SCT035=



000
FTUS43 KDMX 212333
TAFDSM
TAF
KDSM 212333Z 2200/2224 18011KT P6SM SCT030
     FM220200 15011KT P6SM BKN120
     FM221500 23010KT P6SM VCSH SCT040 BKN250
     FM221900 26009KT P6SM BKN100
     FM222100 30010KT P6SM BKN080=



000
FTUS43 KDMX 212333
TAFFOD
TAF
KFOD 212333Z 2200/2224 19007KT P6SM BKN035
      TEMPO 2201/2204 BKN026
     FM220700 17008KT P6SM BKN120
     FM221500 27007KT P6SM SCT050
     FM221800 35008KT P6SM SCT040=



000
FTUS43 KDMX 212333
TAFMCW
TAF
KMCW 212333Z 2200/2224 18007KT P6SM BKN040
     FM220600 15011KT P6SM SCT040 BKN250
      TEMPO 2210/2214 4SM BR BKN020
     FM221500 20013KT P6SM SCT100 BKN200
     FM222100 32015KT P6SM BKN040=



000
FTUS43 KDMX 212333
TAFALO
TAF
KALO 212333Z 2200/2224 17013G20KT P6SM BKN040
     FM220500 16013KT P6SM BKN080
      TEMPO 2210/2213 5SM BR BKN030
     FM221500 22010KT P6SM SCT030 BKN250
     FM222100 29010KT P6SM SCT035=



000
FTUS43 KDMX 212333
TAFOTM
TAF
KOTM 212333Z 2200/2224 18011KT P6SM SCT030
     FM220200 15011KT P6SM BKN120
     FM221500 23010KT P6SM VCSH SCT040 BKN250
     FM221900 26009KT P6SM BKN100
     FM222100 30010KT P6SM BKN080=



000
FTUS43 KDMX 212333
TAFDSM
TAF
KDSM 212333Z 2200/2224 18011KT P6SM SCT030
     FM220200 15011KT P6SM BKN120
     FM221500 23010KT P6SM VCSH SCT040 BKN250
     FM221900 26009KT P6SM BKN100
     FM222100 30010KT P6SM BKN080=



000
FTUS43 KDMX 212333
TAFFOD
TAF
KFOD 212333Z 2200/2224 19007KT P6SM BKN035
      TEMPO 2201/2204 BKN026
     FM220700 17008KT P6SM BKN120
     FM221500 27007KT P6SM SCT050
     FM221800 35008KT P6SM SCT040=



000
FTUS43 KDMX 212333
TAFMCW
TAF
KMCW 212333Z 2200/2224 18007KT P6SM BKN040
     FM220600 15011KT P6SM SCT040 BKN250
      TEMPO 2210/2214 4SM BR BKN020
     FM221500 20013KT P6SM SCT100 BKN200
     FM222100 32015KT P6SM BKN040=



000
FTUS43 KDMX 212032 AAA
TAFMCW
TAF AMD
KMCW 212032Z 2121/2218 16016G23KT P6SM BKN025
     FM220000 15014KT P6SM BKN035
     FM220600 15009KT P6SM SCT040 BKN250
     FM221500 28013KT P6SM SCT100 BKN200=



000
FTUS43 KDMX 212032 AAA
TAFMCW
TAF AMD
KMCW 212032Z 2121/2218 16016G23KT P6SM BKN025
     FM220000 15014KT P6SM BKN035
     FM220600 15009KT P6SM SCT040 BKN250
     FM221500 28013KT P6SM SCT100 BKN200=



000
FTUS43 KDMX 212021 AAA
TAFFOD
TAF AMD
KFOD 212021Z 2120/2218 18010G17KT P6SM BKN035
     FM220100 16008KT P6SM SCT040 BKN250
     FM221500 27007KT P6SM SCT050=



000
FTUS43 KDMX 212021 AAA
TAFFOD
TAF AMD
KFOD 212021Z 2120/2218 18010G17KT P6SM BKN035
     FM220100 16008KT P6SM SCT040 BKN250
     FM221500 27007KT P6SM SCT050=



000
FTUS43 KDMX 211720
TAFDSM
TAF
KDSM 211720Z 2118/2218 19014G21KT P6SM SCT030
     FM220200 16011KT P6SM BKN250
     FM221500 23010KT P6SM SCT040 BKN250=



000
FTUS43 KDMX 211720
TAFALO
TAF
KALO 211720Z 2118/2218 17013G20KT P6SM SCT025
     FM220100 16012KT P6SM SCT250
     FM221500 22010KT P6SM SCT030 BKN250=



000
FTUS43 KDMX 211720
TAFMCW
TAF
KMCW 211720Z 2118/2218 16012KT P6SM SCT022
     FM220000 15011KT P6SM SCT250
     FM221500 28013KT P6SM SCT040 BKN200=



000
FTUS43 KDMX 211720
TAFOTM
TAF
KOTM 211720Z 2118/2218 17013G21KT P6SM SCT025
     FM220000 16010KT P6SM SCT250
     FM221500 20012G20KT P6SM SCT040 BKN200=



000
FTUS43 KDMX 211720
TAFOTM
TAF
KOTM 211720Z 2118/2218 17013G21KT P6SM SCT025
     FM220000 16010KT P6SM SCT250
     FM221500 20012G20KT P6SM SCT040 BKN200=



000
FTUS43 KDMX 211720
TAFDSM
TAF
KDSM 211720Z 2118/2218 19014G21KT P6SM SCT030
     FM220200 16011KT P6SM BKN250
     FM221500 23010KT P6SM SCT040 BKN250=



000
FTUS43 KDMX 211720
TAFFOD
TAF
KFOD 211720Z 2118/2218 18012G19KT P6SM OVC020
     FM212200 17011KT P6SM SCT025 BKN250
     FM220200 16008KT P6SM SCT080 BKN250
     FM221500 27007KT P6SM SCT040=



000
FTUS43 KDMX 211720
TAFMCW
TAF
KMCW 211720Z 2118/2218 16012KT P6SM SCT022
     FM220000 15011KT P6SM SCT250
     FM221500 28013KT P6SM SCT040 BKN200=



000
FTUS43 KDMX 211720
TAFALO
TAF
KALO 211720Z 2118/2218 17013G20KT P6SM SCT025
     FM220100 16012KT P6SM SCT250
     FM221500 22010KT P6SM SCT030 BKN250=



000
FTUS43 KDMX 211703 AAA
TAFFOD
TAF AMD
KFOD 211703Z 2117/2212 18011G18KT P6SM OVC020
     FM220200 15010KT P6SM SCT080 BKN250=



000
FTUS43 KDMX 211703 AAA
TAFFOD
TAF AMD
KFOD 211703Z 2117/2212 18011G18KT P6SM OVC020
     FM220200 15010KT P6SM SCT080 BKN250=



000
FTUS43 KDMX 211120
TAFFOD
TAF
KFOD 211120Z 2112/2212 16006KT P6SM SKC
     FM211400 18012G18KT P6SM FEW040
     FM220200 15010KT P6SM SCT080 BKN250=



000
FTUS43 KDMX 211120
TAFDSM
TAF
KDSM 211120Z 2112/2212 15008KT P6SM SKC
     FM211500 18013G20KT P6SM SCT035 SCT250
     FM220200 16011KT P6SM BKN250=



000
FTUS43 KDMX 211120
TAFMCW
TAF
KMCW 211120Z 2112/2212 17008KT P6SM SKC
     FM211500 18013G21KT P6SM SCT035
     FM220100 15011KT P6SM SCT250
     FM220700 16010KT P6SM VCTS SCT080CB BKN250=



000
FTUS43 KDMX 211120
TAFOTM
TAF
KOTM 211120Z 2112/2212 16007KT P6SM SKC
     FM211500 17012G19KT P6SM FEW035
     FM220100 15010KT P6SM SCT250=



000
FTUS43 KDMX 211120
TAFALO
TAF
KALO 211120Z 2112/2212 16009KT P6SM OVC050
     FM211500 17013G19KT P6SM SCT040
     FM220100 16009KT P6SM SCT250
     FM220800 15010KT P6SM VCTS SCT080CB BKN250=



000
FTUS43 KDMX 211120
TAFMCW
TAF
KMCW 211120Z 2112/2212 17008KT P6SM SKC
     FM211500 18013G21KT P6SM SCT035
     FM220100 15011KT P6SM SCT250
     FM220700 16010KT P6SM VCTS SCT080CB BKN250=



000
FTUS43 KDMX 211120
TAFALO
TAF
KALO 211120Z 2112/2212 16009KT P6SM OVC050
     FM211500 17013G19KT P6SM SCT040
     FM220100 16009KT P6SM SCT250
     FM220800 15010KT P6SM VCTS SCT080CB BKN250=



000
FTUS43 KDMX 211120
TAFOTM
TAF
KOTM 211120Z 2112/2212 16007KT P6SM SKC
     FM211500 17012G19KT P6SM FEW035
     FM220100 15010KT P6SM SCT250=



000
FTUS43 KDMX 211120
TAFFOD
TAF
KFOD 211120Z 2112/2212 16006KT P6SM SKC
     FM211400 18012G18KT P6SM FEW040
     FM220200 15010KT P6SM SCT080 BKN250=



000
FTUS43 KDMX 211120
TAFDSM
TAF
KDSM 211120Z 2112/2212 15008KT P6SM SKC
     FM211500 18013G20KT P6SM SCT035 SCT250
     FM220200 16011KT P6SM BKN250=



000
FTUS43 KDMX 210520
TAFMCW
TAF
KMCW 210520Z 2106/2206 16009KT P6SM BKN035
     FM211500 18013G21KT P6SM SCT030=



000
FTUS43 KDMX 210520
TAFALO
TAF
KALO 210520Z 2106/2206 16009KT P6SM SCT045
     FM211500 17013G19KT P6SM FEW030=



000
FTUS43 KDMX 210520
TAFOTM
TAF
KOTM 210520Z 2106/2206 16008KT P6SM FEW050
     FM211500 17012G19KT P6SM FEW035=



000
FTUS43 KDMX 210520
TAFDSM
TAF
KDSM 210520Z 2106/2206 17008KT P6SM FEW050
     FM211500 18013G20KT P6SM FEW035=



000
FTUS43 KDMX 210520
TAFMCW
TAF
KMCW 210520Z 2106/2206 16009KT P6SM BKN035
     FM211500 18013G21KT P6SM SCT030=



000
FTUS43 KDMX 210520
TAFFOD
TAF
KFOD 210520Z 2106/2206 17008KT P6SM SCT035
     FM211400 18012G18KT P6SM FEW040=



000
FTUS43 KDMX 210520
TAFALO
TAF
KALO 210520Z 2106/2206 16009KT P6SM SCT045
     FM211500 17013G19KT P6SM FEW030=



000
FTUS43 KDMX 210520
TAFOTM
TAF
KOTM 210520Z 2106/2206 16008KT P6SM FEW050
     FM211500 17012G19KT P6SM FEW035=



000
FTUS43 KDMX 210520
TAFFOD
TAF
KFOD 210520Z 2106/2206 17008KT P6SM SCT035
     FM211400 18012G18KT P6SM FEW040=



000
FTUS43 KDMX 210520
TAFDSM
TAF
KDSM 210520Z 2106/2206 17008KT P6SM FEW050
     FM211500 18013G20KT P6SM FEW035=



000
FTUS43 KDMX 202322
TAFALO
TAF
KALO 202322Z 2100/2124 16011KT P6SM FEW050
     FM211500 17013G19KT P6SM FEW030=



000
FTUS43 KDMX 202322
TAFFOD
TAF
KFOD 202322Z 2100/2124 17009KT P6SM BKN035
     FM211400 18012G18KT P6SM FEW040=



000
FTUS43 KDMX 202322
TAFMCW
TAF
KMCW 202322Z 2100/2124 17013KT P6SM SCT050
     FM210230 17011KT P6SM BKN035
     FM211500 18013G21KT P6SM SCT030=



000
FTUS43 KDMX 202322
TAFOTM
TAF
KOTM 202322Z 2100/2124 17009KT P6SM SCT040
     FM211500 17012G19KT P6SM FEW035=



000
FTUS43 KDMX 202322
TAFDSM
TAF
KDSM 202322Z 2100/2124 16010KT P6SM SCT040
     FM211500 18013G20KT P6SM FEW030=



000
FTUS43 KDMX 202322
TAFFOD
TAF
KFOD 202322Z 2100/2124 17009KT P6SM BKN035
     FM211400 18012G18KT P6SM FEW040=



000
FTUS43 KDMX 202322
TAFDSM
TAF
KDSM 202322Z 2100/2124 16010KT P6SM SCT040
     FM211500 18013G20KT P6SM FEW030=



000
FTUS43 KDMX 202322
TAFALO
TAF
KALO 202322Z 2100/2124 16011KT P6SM FEW050
     FM211500 17013G19KT P6SM FEW030=



000
FTUS43 KDMX 202322
TAFOTM
TAF
KOTM 202322Z 2100/2124 17009KT P6SM SCT040
     FM211500 17012G19KT P6SM FEW035=



000
FTUS43 KDMX 202322
TAFMCW
TAF
KMCW 202322Z 2100/2124 17013KT P6SM SCT050
     FM210230 17011KT P6SM BKN035
     FM211500 18013G21KT P6SM SCT030=



000
FTUS43 KDMX 201725
TAFFOD
TAF
KFOD 201725Z 2018/2118 18013G19KT P6SM FEW050 SCT250
     FM210000 17008KT P6SM SCT250
     FM211400 18012G18KT P6SM FEW040=



000
FTUS43 KDMX 201725
TAFOTM
TAF
KOTM 201725Z 2018/2118 18011KT P6SM SCT040
     FM210200 16007KT P6SM SCT250
     FM211500 17012KT P6SM FEW035=



000
FTUS43 KDMX 201725
TAFDSM
TAF
KDSM 201725Z 2018/2118 18014G21KT P6SM FEW040
     FM210000 16008KT P6SM FEW250
     FM211500 18013G20KT P6SM FEW030=



000
FTUS43 KDMX 201725
TAFALO
TAF
KALO 201725Z 2018/2118 18014G21KT P6SM SCT040
     FM210000 16007KT P6SM FEW250
     FM211500 17013G19KT P6SM FEW030=



000
FTUS43 KDMX 201725
TAFMCW
TAF
KMCW 201725Z 2018/2118 18014G22KT P6SM FEW040
     FM210000 17009KT P6SM SCT250
     FM211500 18013G20KT P6SM SCT030=



000
FTUS43 KDMX 201725
TAFOTM
TAF
KOTM 201725Z 2018/2118 18011KT P6SM SCT040
     FM210200 16007KT P6SM SCT250
     FM211500 17012KT P6SM FEW035=



000
FTUS43 KDMX 201725
TAFALO
TAF
KALO 201725Z 2018/2118 18014G21KT P6SM SCT040
     FM210000 16007KT P6SM FEW250
     FM211500 17013G19KT P6SM FEW030=



000
FTUS43 KDMX 201725
TAFMCW
TAF
KMCW 201725Z 2018/2118 18014G22KT P6SM FEW040
     FM210000 17009KT P6SM SCT250
     FM211500 18013G20KT P6SM SCT030=



000
FTUS43 KDMX 201725
TAFDSM
TAF
KDSM 201725Z 2018/2118 18014G21KT P6SM FEW040
     FM210000 16008KT P6SM FEW250
     FM211500 18013G20KT P6SM FEW030=



000
FTUS43 KDMX 201725
TAFFOD
TAF
KFOD 201725Z 2018/2118 18013G19KT P6SM FEW050 SCT250
     FM210000 17008KT P6SM SCT250
     FM211400 18012G18KT P6SM FEW040=



000
FTUS43 KDMX 201130
TAFOTM
TAF
KOTM 201130Z 2012/2112 18005KT P6SM SCT250
     FM201600 19012G19KT P6SM SCT050 SCT250
     FM210200 17008KT P6SM SCT250=



000
FTUS43 KDMX 201130
TAFALO
TAF
KALO 201130Z 2012/2112 16005KT P6SM BKN060
     FM201600 18014G20KT P6SM SCT050 SCT120
     FM210200 16007KT P6SM BKN250=



000
FTUS43 KDMX 201130
TAFFOD
TAF
KFOD 201130Z 2012/2112 18005KT P6SM SCT250
     FM201500 18014G21KT P6SM SCT035 SCT120
     FM210300 17009KT P6SM BKN250=



000
FTUS43 KDMX 201130
TAFDSM
TAF
KDSM 201130Z 2012/2112 18006KT P6SM SCT250
     FM201500 18014G22KT P6SM SCT040 SCT250
     FM210300 16008KT P6SM SCT250=



000
FTUS43 KDMX 201130
TAFMCW
TAF
KMCW 201130Z 2012/2112 18007KT P6SM BKN045
     FM201500 19014G21KT P6SM SCT040 SCT120
     FM210300 17008KT P6SM BKN250=



000
FTUS43 KDMX 201130
TAFOTM
TAF
KOTM 201130Z 2012/2112 18005KT P6SM SCT250
     FM201600 19012G19KT P6SM SCT050 SCT250
     FM210200 17008KT P6SM SCT250=



000
FTUS43 KDMX 201130
TAFALO
TAF
KALO 201130Z 2012/2112 16005KT P6SM BKN060
     FM201600 18014G20KT P6SM SCT050 SCT120
     FM210200 16007KT P6SM BKN250=



000
FTUS43 KDMX 201130
TAFDSM
TAF
KDSM 201130Z 2012/2112 18006KT P6SM SCT250
     FM201500 18014G22KT P6SM SCT040 SCT250
     FM210300 16008KT P6SM SCT250=



000
FTUS43 KDMX 201130
TAFMCW
TAF
KMCW 201130Z 2012/2112 18007KT P6SM BKN045
     FM201500 19014G21KT P6SM SCT040 SCT120
     FM210300 17008KT P6SM BKN250=



000
FTUS43 KDMX 201130
TAFFOD
TAF
KFOD 201130Z 2012/2112 18005KT P6SM SCT250
     FM201500 18014G21KT P6SM SCT035 SCT120
     FM210300 17009KT P6SM BKN250=



000
FTUS43 KDMX 200520
TAFOTM
TAF
KOTM 200520Z 2006/2106 17007KT P6SM SCT050
     FM201600 19013G19KT P6SM SCT050=



000
FTUS43 KDMX 200520
TAFALO
TAF
KALO 200520Z 2006/2106 17007KT P6SM BKN050
     FM201500 19014KT P6SM SCT050=



000
FTUS43 KDMX 200520
TAFMCW
TAF
KMCW 200520Z 2006/2106 17007KT P6SM BKN045
     FM201400 19014G21KT P6SM SCT050=



000
FTUS43 KDMX 200520
TAFOTM
TAF
KOTM 200520Z 2006/2106 17007KT P6SM SCT050
     FM201600 19013G19KT P6SM SCT050=



000
FTUS43 KDMX 200520
TAFFOD
TAF
KFOD 200520Z 2006/2106 18007KT P6SM SCT040
     FM201500 18014KT P6SM SCT120=



000
FTUS43 KDMX 200520
TAFFOD
TAF
KFOD 200520Z 2006/2106 18007KT P6SM SCT040
     FM201500 18014KT P6SM SCT120=



000
FTUS43 KDMX 200520
TAFALO
TAF
KALO 200520Z 2006/2106 17007KT P6SM BKN050
     FM201500 19014KT P6SM SCT050=



000
FTUS43 KDMX 200520
TAFDSM
TAF
KDSM 200520Z 2006/2106 18007KT P6SM SCT050
     FM201500 18014G20KT P6SM SCT040=



000
FTUS43 KDMX 200520
TAFMCW
TAF
KMCW 200520Z 2006/2106 17007KT P6SM BKN045
     FM201400 19014G21KT P6SM SCT050=



000
FTUS43 KDMX 200520
TAFDSM
TAF
KDSM 200520Z 2006/2106 18007KT P6SM SCT050
     FM201500 18014G20KT P6SM SCT040=



000
FTUS43 KDMX 192322
TAFFOD
TAF
KFOD 192322Z 2000/2024 18006KT P6SM FEW030 SCT050
     FM201400 18014KT P6SM SCT120=



000
FTUS43 KDMX 192322
TAFMCW
TAF
KMCW 192322Z 2000/2024 18010KT P6SM SCT045
     FM201400 19014G20KT P6SM SCT040=



000
FTUS43 KDMX 192322
TAFDSM
TAF
KDSM 192322Z 2000/2024 18009KT P6SM FEW035 SCT060
     FM201500 18014KT P6SM SCT040=



000
FTUS43 KDMX 192322
TAFOTM
TAF
KOTM 192322Z 2000/2024 19009KT P6SM SCT050=



000
FTUS43 KDMX 192322
TAFALO
TAF
KALO 192322Z 2000/2024 17007KT P6SM SCT050
     FM201500 19014KT P6SM SCT040=



000
FTUS43 KDMX 192322
TAFOTM
TAF
KOTM 192322Z 2000/2024 19009KT P6SM SCT050=



000
FTUS43 KDMX 192322
TAFALO
TAF
KALO 192322Z 2000/2024 17007KT P6SM SCT050
     FM201500 19014KT P6SM SCT040=



000
FTUS43 KDMX 192322
TAFFOD
TAF
KFOD 192322Z 2000/2024 18006KT P6SM FEW030 SCT050
     FM201400 18014KT P6SM SCT120=



000
FTUS43 KDMX 192322
TAFDSM
TAF
KDSM 192322Z 2000/2024 18009KT P6SM FEW035 SCT060
     FM201500 18014KT P6SM SCT040=



000
FTUS43 KDMX 192322
TAFMCW
TAF
KMCW 192322Z 2000/2024 18010KT P6SM SCT045
     FM201400 19014G20KT P6SM SCT040=



000
FTUS43 KDMX 191729
TAFDSM
TAF
KDSM 191729Z 1918/2018 20011KT P6SM SCT050 BKN250
     FM200000 17006KT P6SM FEW045 BKN250
     FM201500 19012KT P6SM FEW050=



000
FTUS43 KDMX 191729
TAFMCW
TAF
KMCW 191729Z 1918/2018 20013KT P6SM SCT040 BKN250
     FM200000 18007KT P6SM FEW035 BKN250
     FM201400 20014G20KT P6SM SCT040=



000
FTUS43 KDMX 191729
TAFFOD
TAF
KFOD 191729Z 1918/2018 20012KT P6SM SCT040 BKN250
     FM200000 18005KT P6SM FEW080 BKN250
     FM201400 19013KT P6SM SCT050=



000
FTUS43 KDMX 191729
TAFALO
TAF
KALO 191729Z 1918/2018 20010KT P6SM SCT045 BKN250
     FM200000 17006KT P6SM FEW035 BKN250
     FM201400 19011KT P6SM FEW040=



000
FTUS43 KDMX 191729
TAFOTM
TAF
KOTM 191729Z 1918/2018 19008KT P6SM SCT045 BKN250
     FM200000 17004KT P6SM FEW035
     FM201500 18009KT P6SM SCT040=



000
FTUS43 KDMX 191729
TAFMCW
TAF
KMCW 191729Z 1918/2018 20013KT P6SM SCT040 BKN250
     FM200000 18007KT P6SM FEW035 BKN250
     FM201400 20014G20KT P6SM SCT040=



000
FTUS43 KDMX 191729
TAFFOD
TAF
KFOD 191729Z 1918/2018 20012KT P6SM SCT040 BKN250
     FM200000 18005KT P6SM FEW080 BKN250
     FM201400 19013KT P6SM SCT050=



000
FTUS43 KDMX 191729
TAFDSM
TAF
KDSM 191729Z 1918/2018 20011KT P6SM SCT050 BKN250
     FM200000 17006KT P6SM FEW045 BKN250
     FM201500 19012KT P6SM FEW050=



000
FTUS43 KDMX 191729
TAFALO
TAF
KALO 191729Z 1918/2018 20010KT P6SM SCT045 BKN250
     FM200000 17006KT P6SM FEW035 BKN250
     FM201400 19011KT P6SM FEW040=



000
FTUS43 KDMX 191729
TAFOTM
TAF
KOTM 191729Z 1918/2018 19008KT P6SM SCT045 BKN250
     FM200000 17004KT P6SM FEW035
     FM201500 18009KT P6SM SCT040=



    US Dept of Commerce
    National Oceanic and Atmospheric Administration
    National Weather Service
    1325 East West Highway
    Silver Spring, MD 20910
    Page Author: NWS Internet Services Team
Disclaimer
Information Quality
Credits
Glossary
Privacy Policy
Freedom of Information Act (FOIA)
About Us
Career Opportunities